Impacts METAR Board INFO
IDs:

KPDX - Portland Intl Arpt, OR, US

Updated at: 1505 UTC 14 Dec 2017
Potential Impact None Slight Moderate High
Time14/03Z 14/04Z 14/05Z 14/06Z 14/07Z 14/08Z 14/09Z 14/10Z 14/11Z 14/12Z 14/13Z 14/14Z 14/15Z
VIS10 10 10 10 10 10 10 10 10 10 10 10 10
CIG-- -- -- -- -- -- -- -- -- -- -- -- --
CoverFEWCLRCLRCLRCLRCLRCLRCLRCLRCLRCLRFEWSCT
FltCatVFRVFRVFRVFRVFRVFRVFRVFRVFRVFRVFRVFRVFR
WX--------------------------
WDir1301301301201301301103106012007070
WSpd14 12 8 14 10 15 12 4 4 10 3 6 10
WGst-- -- -- -- -- -- -- -- -- 14 -- 16 --
Raw hourly METARs
KPDX 140253Z 13014KT 10SM FEW250 04/M02 A3037 RMK AO2 SLP284 T00391017 50003
KPDX 140353Z 13012KT 10SM CLR 03/M02 A3038 RMK AO2 SLP288 T00331017
KPDX 140453Z 13008KT 10SM CLR 03/M02 A3038 RMK AO2 SLP288 T00331017
KPDX 140553Z 12014KT 10SM CLR 03/M02 A3037 RMK AO2 PRESFR SLP282 T00331017 10056 20028 58002
KPDX 140653Z 13010KT 10SM CLR 03/M02 A3036 RMK AO2 SLP281 T00331017
KPDX 140753Z 13015KT 10SM CLR 04/M02 A3037 RMK AO2 SLP285 T00391017 400781017
KPDX 140853Z 11012KT 10SM CLR 04/M02 A3036 RMK AO2 SLP280 T00391017 58002
KPDX 140953Z 31004KT 10SM CLR 03/M01 A3037 RMK AO2 SLP284 T00281006
KPDX 141053Z 06004KT 10SM CLR 01/M02 A3037 RMK AO2 SLP282 T00061017
KPDX 141153Z 12010G14KT 10SM CLR 02/M01 A3035 RMK AO2 SLP276 T00221011 10044 20000 58004
KPDX 141253Z VRB03KT 10SM CLR 04/M01 A3034 RMK AO2 WSHFT 1153 SLP273 T00391011
KPDX 141353Z COR 07006G16KT 030V100 10SM FEW250 04/M02 A3033 RMK AO2 SLP271 T00391017
KPDX 141453Z 07010KT 10SM FEW180 SCT250 04/M02 A3034 RMK AO2 SLP273 T00441017 55003